Latest Weather Observations for Nowra

IDN60801

Issued at 10:42 pm EDT Wednesday 1 February 2023 (issued every 10 minutes, with the page automatically refreshed every 10 minutes)

About weather observations | Map of weather stations | Latest weather observations for NSW | Other Formats
Station Details ID: 068072 Name: NOWRA RAN AIR STATION AWS Lat: -34.95 Lon: 150.54 Height: 109.0 m
Data from the previous 72 hours. | See also: Recent months at Nowra
Date/Time
EDT
Temp
°C
App
Temp
°C
Dew
Point
°C
Rel
Hum
%
Delta-T
°C
Wind Press
QNH
hPa
Press
MSL
hPa
Rain since
9am
mm
Dir  Spd
km/h
Gust
km/h
Spd
kts
Gust
kts
01/10:30pm 21.3 23.2 18.9 86 1.5 SSW 7 9 4 5 1003.3 1002.8 0.0
01/10:00pm 21.4 23.2 18.8 85 1.6 SSE 7 9 4 5 1003.2 1002.7 0.0
01/09:30pm 21.5 23.4 18.9 85 1.6 S 7 11 4 6 1003.2 1002.7 0.0
01/09:00pm 21.7 23.0 18.5 82 2.0 S 9 11 5 6 1002.9 1002.4 0.0
01/08:30pm 21.9 23.2 18.5 81 2.1 SE 9 9 5 5 1002.4 1002.0 0.0
01/08:00pm 22.1 23.2 18.1 78 2.5 SE 9 11 5 6 1002.2 1001.8 0.0
01/07:30pm 22.4 23.1 18.0 76 2.8 ESE 11 13 6 7 1001.9 1001.5 0.0
01/07:00pm 22.7 23.3 17.8 74 3.1 ESE 11 15 6 8 1001.8 1001.4 0.0
01/06:30pm 23.1 23.2 16.4 66 4.1 ESE 11 15 6 8 1001.4 1001.0 0.0
01/06:00pm 23.5 23.1 16.3 64 4.4 ESE 13 20 7 11 1001.4 1001.0 0.0
01/05:30pm 23.8 22.0 16.1 62 4.7 ESE 20 26 11 14 1001.3 1000.9 0.0
01/05:00pm 23.9 22.5 16.9 65 4.3 ESE 20 28 11 15 1001.4 1001.0 0.0
01/04:30pm 25.2 24.1 17.4 62 4.9 ESE 19 26 10 14 1001.5 1001.1 0.0
01/04:00pm 24.5 23.0 17.7 66 4.3 ESE 22 28 12 15 1001.6 1001.2 0.0
01/03:30pm 25.4 24.0 16.5 57 5.5 ESE 19 26 10 14 1001.6 1001.2 0.0
01/03:00pm 26.0 24.7 16.8 57 5.7 SE 19 24 10 13 1001.7 1001.3 0.0
01/02:30pm 25.1 23.2 15.7 56 5.7 ESE 20 30 11 16 1001.9 1001.5 0.0
01/02:00pm 26.6 25.2 16.5 54 6.3 ESE 19 32 10 17 1001.8 1001.4 0.0
01/01:30pm 26.1 25.1 15.5 52 6.5 SE 15 26 8 14 1002.2 1001.8 0.0
01/01:00pm 26.2 25.2 16.7 56 5.9 SE 17 24 9 13 1002.7 1002.3 0.0
01/12:30pm 26.0 25.7 16.5 55 5.9 SE 13 20 7 11 1003.0 1002.5 0.0
01/12:00pm 25.7 26.2 16.5 56 5.7 E 9 19 5 10 1003.2 1002.7 0.0
01/11:30am 25.0 24.5 15.0 53 6.0 SE 11 17 6 9 1003.4 1002.9 0.0
01/11:00am 25.1 25.2 16.5 59 5.3 SSE 11 15 6 8 1003.6 1003.1 0.0
01/10:30am 23.4 22.4 14.7 58 5.2 SE 13 19 7 10 1003.8 1003.3 0.0
01/10:00am 24.6 23.9 15.5 57 5.5 SE 13 28 7 15 1003.7 1003.2 0.0
01/09:30am 22.6 22.2 15.2 63 4.4 S 11 15 6 8 1003.8 1003.3 0.0
01/09:00am 22.3 22.9 15.4 65 4.2 S 6 11 3 6 1004.0 1003.5 0.0
01/08:30am 21.4 22.4 16.8 75 2.8 WNW 7 9 4 5 1003.9 1003.4 0.0
01/08:00am 20.0 20.8 17.4 85 1.6 WNW 9 11 5 6 1003.9 1003.4 0.0
01/07:30am 19.3 19.9 17.6 90 1.0 W 11 15 6 8 1003.6 1003.1 0.0
01/07:00am 17.9 18.6 17.9 100 0.0 W 11 13 6 7 1003.6 1003.1 0.0
01/06:30am 16.7 17.3 16.7 100 0.0 WNW 9 11 5 6 1003.5 1003.0 0.0
01/06:00am 16.9 17.5 16.7 99 0.1 WNW 9 11 5 6 1003.2 1002.7 0.0
01/05:30am 17.0 17.2 16.8 99 0.1 WSW 11 13 6 7 1003.1 1002.6 0.0
01/05:00am 17.7 18.1 17.2 97 0.3 W 11 13 6 7 1003.2 1002.7 0.0
01/04:30am 18.5 18.2 17.3 93 0.7 WSW 15 19 8 10 1003.1 1002.6 0.0
01/04:00am 18.2 17.9 17.4 95 0.5 WSW 15 17 8 9 1003.2 1002.7 0.0
01/03:30am 18.7 19.5 17.2 91 0.9 SW 9 15 5 8 1003.3 1002.8 0.0
01/03:00am 19.1 19.6 17.4 90 1.0 SW 11 15 6 8 1003.5 1003.0 0.0
01/02:30am 19.2 19.6 17.3 89 1.2 SSW 11 15 6 8 1003.8 1003.3 0.0
01/02:00am 19.4 19.9 17.5 89 1.2 SW 11 15 6 8 1004.0 1003.5 0.0
01/01:30am 19.3 19.6 17.8 91 0.9 SW 13 17 7 9 1004.1 1003.6 0.0
01/01:00am 18.8 19.6 17.3 91 0.9 SW 9 13 5 7 1004.3 1003.8 0.0
01/12:30am 19.3 20.2 17.6 90 1.0 SW 9 22 5 12 1004.5 1004.0 0.0
01/12:00am 18.9 19.6 17.0 89 1.2 SW 9 15 5 8 1004.6 1004.1 0.0
 
Date/Time
EDT
Temp
°C
App
Temp
°C
Dew
Point
°C
Rel
Hum
%
Delta-T
°C
Wind Press
QNH
hPa
Press
MSL
hPa
Rain since
9am
mm
Dir  Spd
km/h
Gust
km/h
Spd
kts
Gust
kts
31/11:30pm 19.5 20.4 17.5 88 1.2 SSW 9 11 5 6 1004.7 1004.2 0.0
31/11:00pm 19.3 19.9 17.6 90 1.0 WSW 11 15 6 8 1005.3 1004.8 0.0
31/10:30pm 19.0 19.3 17.0 88 1.2 SW 11 13 6 7 1005.2 1004.7 0.0
31/10:00pm 19.9 19.6 17.3 85 1.6 SSW 15 20 8 11 1005.3 1004.8 0.0
31/09:30pm 19.9 20.0 17.5 86 1.5 SSW 13 17 7 9 1005.3 1004.8 0.0
31/09:00pm 20.0 21.1 18.0 88 1.2 SW 9 15 5 8 1005.1 1004.6 0.0
31/08:30pm 20.1 20.2 17.5 85 1.6 SSW 13 17 7 9 1004.7 1004.2 0.0
31/08:00pm 20.7 19.3 17.1 80 2.2 S 20 28 11 15 1004.4 1003.9 0.0
31/07:30pm 21.7 19.9 16.9 74 2.9 S 22 33 12 18 1004.0 1003.5 0.0
31/07:00pm 22.4 20.1 16.7 70 3.5 SSE 24 35 13 19 1003.8 1003.3 0.0
31/06:30pm 23.0 21.0 17.5 71 3.4 SSE 24 37 13 20 1003.6 1003.1 0.0
31/06:00pm 23.2 21.4 17.9 72 3.3 SSE 24 30 13 16 1003.6 1003.1 0.0
31/05:30pm 22.9 20.7 16.9 69 3.7 SSE 24 33 13 18 1003.5 1003.0 0.0
31/05:00pm 23.8 22.1 17.1 66 4.2 SSE 22 30 12 16 1003.7 1003.2 0.0
31/04:30pm 24.1 21.4 17.6 67 4.1 S 28 35 15 19 1003.9 1003.4 0.0
31/04:00pm 22.9 21.8 17.8 73 3.2 S 20 28 11 15 1004.1 1003.6 0.0
31/03:30pm 22.5 20.9 17.4 73 3.2 SSE 22 32 12 17 1004.0 1003.5 0.0
31/03:00pm 23.3 22.0 17.3 69 3.7 S 20 37 11 20 1004.1 1003.6 0.0
31/02:30pm 23.4 21.5 16.7 66 4.1 S 22 30 12 16 1004.2 1003.7 0.0
31/02:00pm 24.5 23.0 17.7 66 4.3 S 22 30 12 16 1004.4 1003.9 0.0
31/01:30pm 23.8 21.9 16.6 64 4.4 SSW 22 33 12 18 1004.7 1004.2 0.0
31/01:00pm 23.3 20.5 16.4 65 4.2 SSW 26 39 14 21 1005.0 1004.5 0.0
31/12:30pm 23.8 20.8 16.8 65 4.3 S 28 37 15 20 1005.4 1004.9 0.0
31/12:00pm 23.3 19.4 15.6 62 4.7 SSW 30 39 16 21 1005.6 1005.1 0.0
31/11:30am 22.6 19.6 15.9 66 4.1 SSW 26 39 14 21 1005.8 1005.3 0.0
31/11:00am 22.1 20.2 16.8 72 3.3 SSW 22 32 12 17 1006.0 1005.5 0.0
31/10:30am 21.6 20.8 17.0 75 2.8 SSW 17 24 9 13 1006.2 1005.7 0.0
31/10:00am 21.1 19.2 16.7 76 2.7 SSW 22 35 12 19 1006.2 1005.7 0.0
31/09:30am 21.0 19.6 17.0 78 2.4 SSW 20 30 11 16 1006.2 1005.7 0.0
31/09:00am 20.7 19.0 16.3 76 2.7 SSW 20 28 11 15 1006.4 1005.9 8.6
31/08:30am 20.5 19.9 16.7 79 2.3 SW 15 20 8 11 1006.5 1006.0 8.6
31/08:00am 20.0 19.5 17.0 83 1.8 SSW 15 20 8 11 1006.6 1006.1 8.6
31/07:30am 19.8 19.7 17.0 84 1.7 SSW 13 19 7 10 1006.5 1006.0 8.6
31/07:00am 19.5 18.6 16.9 85 1.6 SW 17 26 9 14 1006.1 1005.6 8.6
31/06:30am 19.2 18.7 17.0 87 1.3 SW 15 19 8 10 1005.9 1005.4 8.6
31/06:00am 19.3 18.3 16.7 85 1.6 SSW 17 26 9 14 1005.8 1005.3 8.6
31/05:30am 19.3 19.3 17.1 87 1.3 SW 13 22 7 12 1005.9 1005.4 8.6
31/05:00am 19.2 19.6 17.2 88 1.2 SW 11 17 6 9 1005.7 1005.2 8.6
31/04:30am 19.3 18.5 17.1 87 1.3 SSW 17 24 9 13 1005.4 1004.9 8.6
31/04:00am 19.1 18.7 17.2 89 1.2 SSW 15 24 8 13 1005.6 1005.1 8.6
31/03:30am 19.1 18.5 17.6 91 0.9 SSW 17 24 9 13 1005.9 1005.4 8.6
31/03:00am 19.1 18.2 18.3 95 0.5 SSW 20 26 11 14 1006.2 1005.7 8.6
31/02:37am 19.1 18.7 18.8 98 0.2 SSW 19 24 10 13 1006.4 1005.9 8.6
31/02:30am 19.1 19.1 18.9 99 0.1 SSW 17 24 9 13 1006.5 1006.0 8.6
31/02:00am 19.4 19.0 18.9 97 0.3 SSW 19 26 10 14 1006.9 1006.4 8.6
31/01:30am 19.3 19.4 19.1 99 0.1 SSW 17 26 9 14 1007.1 1006.6 8.6
31/01:27am 19.3 19.4 19.1 99 0.1 SSW 17 26 9 14 1007.1 1006.6 8.6
31/01:00am 19.2 18.8 19.0 99 0.1 SSW 19 28 10 15 1007.3 1006.9 8.6
31/12:30am 19.1 17.8 19.1 100 0.0 SSW 24 32 13 17 1007.4 1007.0 8.6
31/12:00am 19.0 17.7 19.0 100 0.0 SSW 24 32 13 17 1007.6 1007.2 8.6
 
Date/Time
EDT
Temp
°C
App
Temp
°C
Dew
Point
°C
Rel
Hum
%
Delta-T
°C
Wind Press
QNH
hPa
Press
MSL
hPa
Rain since
9am
mm
Dir  Spd
km/h
Gust
km/h
Spd
kts
Gust
kts
30/11:30pm 18.9 17.9 18.9 100 0.0 SSW 22 33 12 18 1007.9 1007.5 8.6
30/11:00pm 19.1 17.8 19.1 100 0.0 SSW 24 44 13 24 1008.2 1007.8 8.6
30/10:30pm 19.1 18.2 19.1 100 0.0 SSW 22 30 12 16 1008.6 1008.2 8.6
30/10:13pm 19.1 18.6 19.1 100 0.0 S 20 28 11 15 1008.7 1008.3 8.6
30/10:00pm 19.0 18.5 19.0 100 0.0 S 20 30 11 16 1008.8 1008.4 8.6
30/09:54pm 19.1 18.6 19.1 100 0.0 S 20 28 11 15 1008.7 1008.3 8.6
30/09:30pm 19.1 18.6 19.1 100 0.0 S 20 28 11 15 1008.6 1008.2 8.6
30/09:00pm 19.0 18.1 19.0 100 0.0 SSW 22 30 12 16 1008.5 1008.1 8.6
30/08:30pm 19.0 18.5 19.0 100 0.0 SSW 20 28 11 15 1008.6 1008.2 8.6
30/08:00pm 19.0 19.0 19.0 100 0.0 S 17 24 9 13 1008.6 1008.2 8.6
30/07:30pm 19.0 18.5 19.0 100 0.0 S 20 35 11 19 1008.5 1008.1 8.6
30/07:00pm 18.9 17.5 18.9 100 0.0 S 24 33 13 18 1008.2 1007.8 8.4
30/06:30pm 19.1 18.2 19.1 100 0.0 S 22 32 12 17 1007.9 1007.5 7.8
30/06:00pm 19.1 17.8 19.1 100 0.0 S 24 32 13 17 1007.8 1007.4 7.0
30/05:30pm 19.6 19.3 19.6 100 0.0 S 20 26 11 14 1007.9 1007.5 6.0
30/05:00pm 19.7 18.3 19.7 100 0.0 S 26 37 14 20 1008.0 1007.6 4.6
30/04:51pm 19.6 17.0 19.6 100 0.0 S 32 44 17 24 1008.1 1007.7 4.6
30/04:30pm 19.8 18.1 19.8 100 0.0 S 28 37 15 20 1008.1 1007.7 4.0
30/04:19pm 20.0 19.2 20.0 100 0.0 S 24 35 13 19 1008.0 1007.6 4.0
30/04:00pm 20.3 19.6 20.3 100 0.0 S 24 35 13 19 1007.9 1007.5 3.8
30/03:48pm 20.2 18.3 20.2 100 0.0 S 30 41 16 22 1007.8 1007.4 3.8
30/03:30pm 20.5 20.3 20.5 100 0.0 S 22 32 12 17 1007.9 1007.5 3.6
30/03:24pm 20.8 20.7 20.8 100 0.0 S 22 30 12 16 1008.0 1007.6 3.4
30/03:06pm 20.9 21.3 20.9 100 0.0 S 20 26 11 14 1008.1 1007.7 2.8
30/03:00pm 20.9 20.9 20.9 100 0.0 S 22 28 12 15 1008.1 1007.7 2.6
30/02:53pm 20.7 21.0 20.7 100 0.0 S 20 28 11 15 1008.1 1007.7 2.4
30/02:45pm 20.8 21.3 20.8 100 0.0 S 19 28 10 15 1008.3 1007.9 0.8
30/02:30pm 20.9 21.4 20.9 100 0.0 S 19 24 10 13 1008.3 1007.9 0.4
30/02:00pm 21.4 21.5 21.1 98 0.2 S 22 30 12 16 1008.4 1008.0 0.4
30/01:49pm 22.0 22.8 21.8 99 0.1 S 20 28 11 15 1008.4 1008.0 0.4
30/01:30pm 22.2 22.5 21.5 96 0.5 SSE 22 30 12 16 1008.5 1008.1 0.4
30/01:00pm 22.2 23.4 22.2 100 0.0 SSE 19 24 10 13 1008.8 1008.4 0.4
30/12:56pm 22.6 24.4 22.6 100 0.0 SSE 17 22 9 12 1008.8 1008.4 0.4
30/12:34pm 23.2 25.7 22.4 95 0.5 S 13 17 7 9 1009.1 1008.7 0.0
30/12:30pm 23.1 25.3 21.9 93 0.8 SSE 13 17 7 9 1009.2 1008.8 0.0
30/12:00pm 23.3 25.3 21.6 90 1.1 SE 13 19 7 10 1009.4 1009.0 0.0
30/11:30am 23.4 26.5 22.2 93 0.8 S 9 13 5 7 1009.5 1009.1 0.0
30/11:00am 22.4 24.1 22.4 100 0.0 SSE 17 20 9 11 1009.9 1009.5 0.0
30/10:30am 22.7 24.6 22.7 100 0.0 SSE 17 22 9 12 1009.9 1009.5 0.0
30/10:00am 21.9 23.3 21.9 100 0.0 SSE 17 24 9 13 1010.0 1009.6 0.0
30/09:30am 21.7 23.0 21.7 100 0.0 SSE 17 26 9 14 1010.0 1009.6 0.0
30/09:09am 21.6 22.9 21.6 100 0.0 SSE 17 22 9 12 1009.9 1009.5 0.0
30/09:00am 21.6 22.9 21.6 100 0.0 SSE 17 22 9 12 1009.7 1009.3 60.2
30/08:30am 21.3 24.3 21.3 100 0.0 SE 7 9 4 5 1010.0 1009.6 60.2
30/08:00am 21.4 24.1 21.4 100 0.0 SE 9 13 5 7 1010.0 1009.6 60.2
30/07:30am 21.1 25.4 21.1 100 0.0 CALM 0 0 0 0 1009.7 1009.3 60.2
30/07:00am 21.0 23.9 21.0 100 0.0 SW 7 11 4 6 1009.5 1009.1 60.2
30/06:30am 21.2 25.5 21.2 100 0.0 CALM 0 0 0 0 1009.3 1008.9 60.2
30/06:00am 21.3 24.3 21.3 100 0.0 W 7 11 4 6 1009.2 1008.8 60.2
30/05:30am 21.3 25.7 21.3 100 0.0 CALM 0 0 0 0 1009.2 1008.8 60.2
30/05:00am 21.3 25.7 21.3 100 0.0 CALM 0 0 0 0 1009.3 1008.9 60.2
30/04:30am 21.2 25.1 21.2 100 0.0 NNW 2 7 1 4 1009.1 1008.7 60.2
30/04:00am 21.4 24.5 21.4 100 0.0 WNW 7 11 4 6 1009.6 1009.2 60.2
30/03:30am 21.3 24.3 21.3 100 0.0 NW 7 11 4 6 1009.8 1009.4 60.2
30/03:00am 21.4 25.8 21.4 100 0.0 CALM 0 0 0 0 1010.3 1009.9 60.2
30/02:36am 21.4 24.5 21.4 100 0.0 WNW 7 9 4 5 1010.6 1010.2 60.2
30/02:30am 21.4 24.7 21.4 100 0.0 W 6 7 3 4 1010.7 1010.3 60.0
30/02:08am 21.5 23.5 21.5 100 0.0 WNW 13 19 7 10 1011.8 1011.4 57.8
30/02:00am 21.5 23.9 21.5 100 0.0 WNW 11 15 6 8 1011.7 1011.3 56.8
30/01:58am 21.5 23.9 21.5 100 0.0 WNW 11 15 6 8 1011.6 1011.2 56.6
30/01:37am 21.5 24.8 21.5 100 0.0 W 6 11 3 6 1011.7 1011.3 54.2
30/01:30am 21.4 24.7 21.4 100 0.0 SW 6 13 3 7 1012.0 1011.6 53.6
30/01:23am 21.4 22.6 21.4 100 0.0 SW 17 28 9 15 1012.2 1011.8 39.4
30/01:13am 21.7 24.2 21.7 100 0.0 WNW 11 28 6 15 1012.4 1012.0 25.4
30/01:00am 21.9 25.8 21.9 100 0.0 NE 4 9 2 5 1012.2 1011.8 23.6
30/12:59am 21.9 25.8 21.9 100 0.0 NE 4 9 2 5 1012.2 1011.8 23.6
30/12:30am 21.9 24.1 21.9 100 0.0 SSW 13 22 7 12 1012.6 1012.2 20.4
30/12:00am 22.0 26.0 22.0 100 0.0 N 4 7 2 4 1013.3 1012.8 3.4
 
Date/Time
EDT
Temp
°C
App
Temp
°C
Dew
Point
°C
Rel
Hum
%
Delta-T
°C
Wind Press
QNH
hPa
Press
MSL
hPa
Rain since
9am
mm
Dir  Spd
km/h
Gust
km/h
Spd
kts
Gust
kts
29/11:36pm 22.0 26.7 22.0 100 0.0 CALM 0 0 0 0 1013.3 1012.8 1.2
29/11:30pm 22.0 26.7 22.0 100 0.0 CALM 0 0 0 0 1013.3 1012.8 0.8
29/11:00pm 22.0 26.7 22.0 100 0.0 CALM 0 0 0 0 1013.8 1013.3 0.6

Other formats

Comma delimited format used in spreadsheet applications
http://www.bom.gov.au/fwo/IDN60801/IDN60801.94750.axf

JavaScript Object Notation format (JSON) in row-major order
http://www.bom.gov.au/fwo/IDN60801/IDN60801.94750.json

Data quality

Most of these data are generated automatically and are frequently updated. Quality checks on data are not normally performed. It is possible for incorrect values to appear. Refer to information at About Latest Weather Observations and please check the disclaimer before using these data.